createdAt,value
2019-05-11T00:01:26.090Z,59851.22
2019-05-11T00:03:54.494Z,59851.22
2019-05-11T00:06:22.926Z,59867.47
2019-05-11T00:08:51.343Z,59867.47
2019-05-11T00:11:19.729Z,59850.20
2019-05-11T00:13:48.130Z,59884.75
2019-05-11T00:16:19.044Z,59863.41
2019-05-11T00:18:46.704Z,59861.38
2019-05-11T00:21:15.095Z,59871.54
2019-05-11T00:23:43.499Z,59866.46
2019-05-11T00:26:12.225Z,59866.46
2019-05-11T00:28:40.987Z,59880.68
2019-05-11T00:31:09.707Z,59882.71
2019-05-11T00:33:38.111Z,59877.64
2019-05-11T00:36:06.771Z,59875.61
2019-05-11T00:38:35.193Z,59877.64
2019-05-11T00:41:03.598Z,59877.64
2019-05-11T00:43:31.989Z,59877.64
2019-05-11T00:46:00.719Z,59855.28
2019-05-11T00:48:29.409Z,59863.41
2019-05-11T00:50:58.091Z,59885.76
2019-05-11T00:53:26.483Z,59869.51
2019-05-11T00:55:54.950Z,59856.30
2019-05-11T00:58:23.369Z,59889.83
2019-05-11T01:00:51.738Z,59878.65
2019-05-11T01:03:20.145Z,59870.52
2019-05-11T01:05:48.655Z,59879.67
2019-05-11T01:08:17.295Z,59873.57
2019-05-11T01:10:45.699Z,59864.43
2019-05-11T01:13:14.094Z,59864.43
2019-05-11T01:15:42.482Z,59862.39
2019-05-11T01:18:11.133Z,59871.54
2019-05-11T01:20:39.837Z,59859.35
2019-05-11T01:23:08.513Z,59859.35
2019-05-11T01:25:37.211Z,59889.83
2019-05-11T01:28:05.849Z,59889.83
2019-05-11T01:30:34.591Z,59861.38
2019-05-11T01:33:03.296Z,59858.33
2019-05-11T01:35:31.964Z,59875.61
2019-05-11T01:38:00.659Z,59876.62
2019-05-11T01:40:29.050Z,59869.51
2019-05-11T01:42:57.448Z,59869.51
2019-05-11T01:45:25.833Z,59856.30
2019-05-11T01:47:54.242Z,59865.44
2019-05-11T01:50:22.975Z,59865.44
2019-05-11T01:52:51.377Z,59865.44
2019-05-11T01:55:20.051Z,59879.67
2019-05-11T01:57:48.439Z,59879.67
2019-05-11T02:00:16.910Z,59874.59
2019-05-11T02:02:45.606Z,59872.55
2019-05-11T02:05:30.286Z,59872.55
2019-05-11T02:08:00.516Z,59863.41
2019-05-11T02:10:29.688Z,59865.44
2019-05-11T02:12:58.215Z,59883.73
2019-05-11T02:15:26.745Z,59883.73
2019-05-11T02:17:55.559Z,59885.76
2019-05-11T02:20:23.960Z,59876.62
2019-05-11T02:22:52.358Z,59876.62
2019-05-11T02:25:21.012Z,59851.22
2019-05-11T02:27:49.415Z,59880.68
2019-05-11T02:30:18.167Z,59880.68
2019-05-11T02:32:46.879Z,59894.91
2019-05-11T02:35:15.875Z,59854.27
2019-05-11T02:37:44.331Z,59854.27
2019-05-11T02:40:13.468Z,59864.43
2019-05-11T02:42:41.982Z,59864.43
2019-05-11T02:45:12.131Z,59893.89
2019-05-11T02:47:40.961Z,59878.65
2019-05-11T02:50:09.358Z,59878.65
2019-05-11T02:52:38.372Z,59885.76
2019-05-11T02:55:08.403Z,59853.25
2019-05-11T02:57:36.793Z,59862.39
2019-05-11T03:00:09.689Z,59869.51
2019-05-11T03:02:38.101Z,59869.51
2019-05-11T03:05:07.967Z,59873.57
2019-05-11T03:07:36.356Z,59870.52
2019-05-11T03:10:06.922Z,59888.81
2019-05-11T03:12:35.376Z,59872.55
2019-05-11T03:15:05.681Z,59872.55
2019-05-11T03:17:34.156Z,59868.49
2019-05-11T03:20:02.635Z,59876.62
2019-05-11T03:22:31.037Z,59869.51
2019-05-11T03:24:59.528Z,59869.51
2019-05-11T03:27:27.993Z,59872.55
2019-05-11T03:30:00.647Z,59875.61
2019-05-11T03:32:27.113Z,59875.61
2019-05-11T03:34:55.529Z,59881.70
2019-05-11T03:37:23.995Z,59874.59
2019-05-11T03:39:52.673Z,59874.59
2019-05-11T03:42:21.357Z,59871.54
2019-05-11T03:44:50.048Z,59871.54
2019-05-11T03:47:18.424Z,59895.93
2019-05-11T03:49:46.816Z,59880.68
2019-05-11T03:52:15.225Z,59875.61
2019-05-11T03:54:43.634Z,59875.61
2019-05-11T03:57:12.021Z,59875.61
2019-05-11T03:59:40.750Z,59875.61
2019-05-11T04:02:09.152Z,59872.55
2019-05-11T04:04:37.824Z,59881.70
2019-05-11T04:07:06.353Z,59872.55
2019-05-11T04:09:35.215Z,59872.55
2019-05-11T04:12:03.616Z,59879.67
2019-05-11T04:14:32.289Z,59879.67
2019-05-11T04:17:00.969Z,59876.62
2019-05-11T04:19:29.375Z,59876.62
2019-05-11T04:21:58.048Z,59848.17
2019-05-11T04:24:26.443Z,59887.80
2019-05-11T04:26:54.835Z,59881.70
2019-05-11T04:29:23.503Z,59888.81
2019-05-11T04:31:51.903Z,59888.81
2019-05-11T04:34:20.322Z,59868.49
2019-05-11T04:36:48.708Z,59868.49
2019-05-11T04:39:17.129Z,59852.23
2019-05-11T04:41:45.504Z,59852.23
2019-05-11T04:44:13.899Z,59875.61
2019-05-11T04:46:42.589Z,59878.65
2019-05-11T04:49:10.997Z,59857.32
2019-05-11T04:51:39.395Z,59857.32
2019-05-11T04:54:07.861Z,59879.67
2019-05-11T04:56:36.259Z,59884.75
2019-05-11T04:59:04.658Z,59871.54
2019-05-11T05:01:33.069Z,59857.32
2019-05-11T05:04:13.262Z,59884.75
2019-05-11T05:06:31.579Z,59884.75
2019-05-11T05:09:03.784Z,59858.33
2019-05-11T05:11:36.123Z,59858.33
2019-05-11T05:14:01.894Z,59856.30
2019-05-11T05:16:31.608Z,59876.62
2019-05-11T05:19:00.091Z,59876.62
2019-05-11T05:21:28.482Z,59877.64
2019-05-11T05:23:57.107Z,59873.57
2019-05-11T05:26:25.780Z,59894.91
2019-05-11T05:28:54.145Z,59881.70
2019-05-11T05:31:22.556Z,59881.70
2019-05-11T05:33:50.965Z,59898.97
2019-05-11T05:36:19.349Z,59887.80
2019-05-11T05:38:47.776Z,59887.80
2019-05-11T05:41:16.190Z,59876.62
2019-05-11T05:43:44.652Z,59876.62
2019-05-11T05:46:13.067Z,59895.93
2019-05-11T05:48:41.444Z,59856.30
2019-05-11T05:51:09.856Z,59873.57
2019-05-11T05:53:38.247Z,59857.32
2019-05-11T05:56:06.649Z,59857.32
2019-05-11T05:58:35.096Z,59892.88
2019-05-11T06:01:03.482Z,59886.78
2019-05-11T06:03:32.191Z,59886.78
2019-05-11T06:06:00.632Z,59876.62
2019-05-11T06:08:29.005Z,59872.55
2019-05-11T06:10:57.424Z,59886.78
2019-05-11T06:13:42.768Z,59872.55
2019-05-11T06:15:55.934Z,59872.55
2019-05-11T06:18:24.353Z,59914.21
2019-05-11T06:20:52.764Z,59914.21
2019-05-11T06:23:21.402Z,59862.39
2019-05-11T06:25:49.816Z,59871.54
2019-05-11T06:28:18.222Z,59887.80
2019-05-11T06:30:46.695Z,59860.36
2019-05-11T06:33:15.071Z,59860.36
2019-05-11T06:35:43.732Z,59891.86
2019-05-11T06:38:12.130Z,59861.38
2019-05-11T06:40:40.529Z,59861.38
2019-05-11T06:43:08.917Z,59876.62
2019-05-11T06:45:37.305Z,59857.32
2019-05-11T06:48:05.760Z,59892.88
2019-05-11T06:50:34.159Z,59877.64
2019-05-11T06:53:02.602Z,59869.51
2019-05-11T06:55:31.174Z,59866.46
2019-05-11T06:57:59.569Z,59886.78
2019-05-11T07:00:28.030Z,59891.86
2019-05-11T07:02:56.479Z,59895.93
2019-05-11T07:05:24.929Z,59882.71
2019-05-11T07:07:53.322Z,59874.59
2019-05-11T07:10:21.718Z,59874.59
2019-05-11T07:12:50.116Z,59901.00
2019-05-11T07:15:19.387Z,59869.51
2019-05-11T07:17:47.812Z,59883.73
2019-05-11T07:20:16.285Z,59888.81
2019-05-11T07:22:44.947Z,59888.81
2019-05-11T07:25:13.464Z,59881.70
2019-05-11T07:27:41.951Z,59885.76
2019-05-11T07:30:10.912Z,59864.43
2019-05-11T07:32:39.327Z,59892.88
2019-05-11T07:35:08.848Z,59892.88
2019-05-11T07:37:38.542Z,59881.70
2019-05-11T07:40:08.388Z,59894.91
2019-05-11T07:42:38.073Z,59881.70
2019-05-11T07:45:10.068Z,59867.47
2019-05-11T07:47:38.460Z,59861.38
2019-05-11T07:50:09.199Z,59861.38
2019-05-11T07:52:38.012Z,59898.97
2019-05-11T07:55:08.530Z,59875.61
2019-05-11T07:57:39.102Z,59906.09
2019-05-11T08:00:08.492Z,59872.55
2019-05-11T08:02:48.202Z,59872.55
2019-05-11T08:05:17.982Z,59885.76
2019-05-11T08:07:48.168Z,59889.83
2019-05-11T08:10:18.560Z,59875.61
2019-05-11T08:12:48.255Z,59872.55
2019-05-11T08:15:18.411Z,59872.55
2019-05-11T08:17:48.783Z,59871.54
2019-05-11T08:20:18.647Z,59871.54
2019-05-11T08:22:48.165Z,59882.71
2019-05-11T08:25:18.224Z,59882.71
2019-05-11T08:27:48.564Z,59867.47
2019-05-11T08:30:19.059Z,59863.41
2019-05-11T08:32:49.384Z,59863.41
2019-05-11T08:35:18.067Z,59883.73
2019-05-11T08:37:47.869Z,59878.65
2019-05-11T08:40:18.727Z,59883.73
2019-05-11T08:42:48.166Z,59875.61
2019-05-11T08:45:24.104Z,59846.14
2019-05-11T08:47:48.523Z,59881.70
2019-05-11T08:50:18.714Z,59889.83
2019-05-11T08:52:47.996Z,59867.47
2019-05-11T08:55:19.036Z,59881.70
2019-05-11T08:57:47.957Z,59878.65
2019-05-11T09:00:18.272Z,59874.59
2019-05-11T09:02:50.669Z,59864.43
2019-05-11T09:05:19.010Z,59884.75
2019-05-11T09:07:48.433Z,59877.64
2019-05-11T09:10:18.598Z,59884.75
2019-05-11T09:12:52.200Z,59877.64
2019-05-11T09:15:35.922Z,59885.76
2019-05-11T09:17:51.007Z,59871.54
2019-05-11T09:20:22.284Z,59882.71
2019-05-11T09:22:50.679Z,59886.78
2019-05-11T09:25:19.069Z,59866.46
2019-05-11T09:27:48.392Z,59893.89
2019-05-11T09:30:18.412Z,59881.70
2019-05-11T09:32:49.932Z,59877.64
2019-05-11T09:35:19.057Z,59895.93
2019-05-11T09:37:48.459Z,59885.76
2019-05-11T09:40:18.781Z,59886.78
2019-05-11T09:42:47.892Z,59876.62
2019-05-11T09:45:18.623Z,59888.81
2019-05-11T09:47:47.855Z,59860.36
2019-05-11T09:50:17.946Z,59886.78
2019-05-11T09:52:48.709Z,59864.43
2019-05-11T09:55:19.031Z,59881.70
2019-05-11T09:57:48.712Z,59872.55
2019-05-11T10:00:18.225Z,59858.33
2019-05-11T10:02:48.777Z,59880.68
2019-05-11T10:05:18.843Z,59884.75
2019-05-11T10:07:48.441Z,59871.54
2019-05-11T10:10:18.626Z,59881.70
2019-05-11T10:12:48.543Z,59867.47
2019-05-11T10:15:18.772Z,59887.80
2019-05-11T10:17:48.333Z,59857.32
2019-05-11T10:20:18.185Z,59888.81
2019-05-11T10:22:48.669Z,59856.30
2019-05-11T10:25:18.117Z,59849.18
2019-05-11T10:27:48.928Z,59865.44
2019-05-11T10:30:18.595Z,59886.78
2019-05-11T10:32:52.865Z,59870.52
2019-05-11T10:35:25.200Z,59891.86
2019-05-11T10:37:53.854Z,59870.52
2019-05-11T10:40:22.333Z,59889.83
2019-05-11T10:42:50.743Z,59865.44
2019-05-11T10:45:19.345Z,59871.54
2019-05-11T10:47:48.992Z,59866.46
2019-05-11T10:50:18.802Z,59869.51
2019-05-11T10:52:48.416Z,59871.54
2019-05-11T10:55:19.280Z,59882.71
2019-05-11T10:57:48.743Z,59844.11
2019-05-11T11:00:18.219Z,59873.57
2019-05-11T11:02:47.724Z,59868.49
2019-05-11T11:05:18.742Z,59871.54
2019-05-11T11:07:48.443Z,59885.76
2019-05-11T11:10:18.270Z,59874.59
2019-05-11T11:12:57.828Z,59866.46
2019-05-11T11:15:28.730Z,59858.33
2019-05-11T11:17:57.910Z,59877.64
2019-05-11T11:20:28.062Z,59850.20
2019-05-11T11:22:58.371Z,59852.23
2019-05-11T11:25:28.360Z,59901.00
2019-05-11T11:27:57.821Z,59870.52
2019-05-11T11:30:28.574Z,59878.65
2019-05-11T11:32:58.738Z,59875.61
2019-05-11T11:35:27.923Z,59884.75
2019-05-11T11:37:58.510Z,59889.83
2019-05-11T11:40:28.155Z,59867.47
2019-05-11T11:43:01.632Z,59889.83
2019-05-11T11:45:30.059Z,59850.20
2019-05-11T11:47:58.569Z,59850.20
2019-05-11T11:50:28.356Z,59844.11
2019-05-11T11:52:57.894Z,59853.25
2019-05-11T11:55:28.787Z,59877.64
2019-05-11T11:57:58.663Z,59880.68
2019-05-11T12:00:28.787Z,59869.51
2019-05-11T12:02:57.988Z,59857.32
2019-05-11T12:05:28.260Z,59862.39
2019-05-11T12:07:58.002Z,59828.86
2019-05-11T12:10:28.520Z,59833.95
2019-05-11T12:12:58.119Z,59873.57
2019-05-11T12:15:33.006Z,59851.22
2019-05-11T12:18:01.413Z,59857.32
2019-05-11T12:20:29.809Z,59882.71
2019-05-11T12:22:58.436Z,59861.38
2019-05-11T12:25:27.802Z,59846.14
2019-05-11T12:27:57.714Z,59856.30
2019-05-11T12:30:28.360Z,59842.07
2019-05-11T12:32:57.741Z,59858.33
2019-05-11T12:35:28.481Z,59849.18
2019-05-11T12:37:58.532Z,59864.43
2019-05-11T12:40:28.358Z,59833.95
2019-05-11T12:42:59.045Z,59840.04
2019-05-11T12:45:29.364Z,59844.11
2019-05-11T12:47:58.686Z,59841.06
2019-05-11T12:50:28.586Z,59827.85
2019-05-11T12:52:58.845Z,59838.01
2019-05-11T12:55:28.699Z,59885.76
2019-05-11T12:57:57.952Z,59848.17
2019-05-11T13:00:30.915Z,59868.49
2019-05-11T13:02:58.758Z,59844.11
2019-05-11T13:05:28.536Z,59838.01
2019-05-11T13:07:58.629Z,59853.25
2019-05-11T13:10:28.265Z,59833.95
2019-05-11T13:12:58.098Z,59850.20
2019-05-11T13:15:28.178Z,59867.47
2019-05-11T13:17:58.149Z,59836.99
2019-05-11T13:20:28.602Z,59848.17
2019-05-11T13:22:58.763Z,59850.20
2019-05-11T13:25:28.277Z,59836.99
2019-05-11T13:27:58.124Z,59852.23
2019-05-11T13:30:27.836Z,59845.12
2019-05-11T13:32:57.979Z,59860.36
2019-05-11T13:35:28.538Z,59846.14
2019-05-11T13:37:58.463Z,59844.11
2019-05-11T13:40:27.696Z,59857.32
2019-05-11T13:42:58.176Z,59828.86
2019-05-11T13:45:28.229Z,59842.07
2019-05-11T13:47:59.227Z,59836.99
2019-05-11T13:50:29.431Z,59857.32
2019-05-11T13:52:58.383Z,59856.30
2019-05-11T13:55:28.471Z,59838.01
2019-05-11T13:57:57.835Z,59868.49
2019-05-11T14:00:28.643Z,59853.25
2019-05-11T14:02:58.535Z,59842.07
2019-05-11T14:05:28.539Z,59849.18
2019-05-11T14:07:58.645Z,59828.86
2019-05-11T14:10:28.285Z,59859.35
2019-05-11T14:12:58.085Z,59850.20
2019-05-11T14:15:28.024Z,59855.28
2019-05-11T14:18:05.603Z,59855.28
2019-05-11T14:20:28.736Z,59831.91
2019-05-11T14:22:58.260Z,59855.28
2019-05-11T14:25:27.910Z,59846.14
2019-05-11T14:27:56.466Z,59876.62
2019-05-11T14:30:25.216Z,59852.23
2019-05-11T14:32:53.641Z,59856.30
2019-05-11T14:35:22.315Z,59835.98
2019-05-11T14:37:50.698Z,59825.82
2019-05-11T14:40:19.105Z,59854.27
2019-05-11T14:42:49.031Z,59822.77
2019-05-11T14:45:18.797Z,59844.11
2019-05-11T14:47:47.761Z,59830.90
2019-05-11T14:50:18.832Z,59833.95
2019-05-11T14:52:48.870Z,59857.32
2019-05-11T14:55:18.357Z,59840.04
2019-05-11T14:57:48.544Z,59819.72
2019-05-11T15:00:18.549Z,59843.09
2019-05-11T15:02:49.398Z,59859.35
2019-05-11T15:05:19.800Z,59840.04
2019-05-11T15:07:52.059Z,59830.90
2019-05-11T15:10:19.503Z,59836.99
2019-05-11T15:12:48.852Z,59839.03
2019-05-11T15:15:18.624Z,59819.72
2019-05-11T15:17:49.244Z,59849.18
2019-05-11T15:20:18.773Z,59842.07
2019-05-11T15:22:48.918Z,59821.75
2019-05-11T15:25:19.333Z,59812.61
2019-05-11T15:27:48.761Z,59838.01
2019-05-11T15:30:18.399Z,59842.07
2019-05-11T15:32:48.229Z,59818.70
2019-05-11T15:35:18.659Z,59842.07
2019-05-11T15:37:48.810Z,59834.96
2019-05-11T15:40:18.943Z,59840.04
2019-05-11T15:42:48.653Z,59843.09
2019-05-11T15:45:19.366Z,59850.20
2019-05-11T15:47:48.757Z,59857.32
2019-05-11T15:50:19.450Z,59845.12
2019-05-11T15:52:48.743Z,59817.69
2019-05-11T15:55:22.742Z,59840.04
2019-05-11T15:57:51.393Z,59846.14
2019-05-11T16:00:20.217Z,59860.36
2019-05-11T16:02:49.239Z,59819.72
2019-05-11T16:05:18.500Z,59846.14
2019-05-11T16:07:49.227Z,59825.82
2019-05-11T16:10:18.810Z,59844.11
2019-05-11T16:12:48.553Z,59831.91
2019-05-11T16:15:19.508Z,59828.86
2019-05-11T16:17:48.726Z,59835.98
2019-05-11T16:20:18.485Z,59825.82
2019-05-11T16:22:47.934Z,59819.72
2019-05-11T16:25:19.839Z,59816.67
2019-05-11T16:27:47.286Z,59818.70
2019-05-11T16:30:20.850Z,59804.48
2019-05-11T16:32:48.055Z,59824.80
2019-05-11T16:35:17.986Z,59834.96
2019-05-11T16:37:48.720Z,59826.83
2019-05-11T16:40:20.128Z,59827.85
2019-05-11T16:42:47.899Z,59812.61
2019-05-11T16:45:18.897Z,59818.70
2019-05-11T16:47:48.267Z,59859.35
2019-05-11T16:50:18.176Z,59866.46
2019-05-11T16:52:48.159Z,59843.09
2019-05-11T16:55:18.468Z,59818.70
2019-05-11T16:57:48.429Z,59851.22
2019-05-11T17:00:17.900Z,59820.74
2019-05-11T17:02:48.664Z,59832.93
2019-05-11T17:05:25.903Z,59832.93
2019-05-11T17:07:48.386Z,59822.77
2019-05-11T17:10:18.261Z,59831.91
2019-05-11T17:12:48.213Z,59820.74
2019-05-11T17:15:20.148Z,59841.06
2019-05-11T17:17:51.752Z,59841.06
2019-05-11T17:20:20.188Z,59827.85
2019-05-11T17:22:49.045Z,59835.98
2019-05-11T17:25:19.279Z,59856.30
2019-05-11T17:27:48.631Z,59834.96
2019-05-11T17:30:19.261Z,59830.90
2019-05-11T17:32:49.297Z,59842.07
2019-05-11T17:35:17.929Z,59823.79
2019-05-11T17:37:48.536Z,59830.90
2019-05-11T17:40:19.428Z,59838.01
2019-05-11T17:42:48.064Z,59845.12
2019-05-11T17:45:18.992Z,56400.21
2019-05-11T17:47:47.273Z,56371.79
2019-05-11T17:50:15.733Z,56326.10
2019-05-11T17:52:44.122Z,56354.53
2019-05-11T17:55:15.208Z,56323.06
2019-05-11T17:57:43.692Z,56298.70
2019-05-11T18:00:12.218Z,56378.89
2019-05-11T18:02:40.622Z,56339.30
2019-05-11T18:05:14.183Z,56381.94
2019-05-11T18:07:42.800Z,56473.30
2019-05-11T18:10:11.868Z,56428.63
2019-05-11T18:12:40.257Z,56440.82
2019-05-11T18:15:09.437Z,56465.18
2019-05-11T18:17:44.020Z,56494.62
2019-05-11T18:20:18.647Z,56474.32
2019-05-11T18:22:45.517Z,56433.71
2019-05-11T18:25:18.565Z,56476.35
2019-05-11T18:27:48.207Z,56505.79
2019-05-11T18:30:16.946Z,56538.27
2019-05-11T18:32:49.369Z,56512.89
2019-05-11T18:35:19.463Z,56503.76
2019-05-11T18:37:48.230Z,56528.12
2019-05-11T18:40:18.677Z,56581.93
2019-05-11T18:42:48.713Z,56535.23
2019-05-11T18:45:18.826Z,56561.62
2019-05-11T18:47:48.853Z,56566.70
2019-05-11T18:50:29.460Z,56568.73
2019-05-11T18:52:49.037Z,56624.57
2019-05-11T18:55:18.933Z,56644.87
2019-05-11T18:57:49.087Z,56647.92
2019-05-11T19:00:18.512Z,56655.02
2019-05-11T19:02:49.368Z,56633.70
2019-05-11T19:05:18.043Z,56576.85
2019-05-11T19:07:48.152Z,56583.96
2019-05-11T19:10:16.998Z,56583.96
2019-05-11T19:12:45.413Z,56594.11
2019-05-11T19:15:14.337Z,56577.87
2019-05-11T19:17:42.750Z,56509.85
2019-05-11T19:20:11.483Z,56520.00
2019-05-11T19:22:40.137Z,56487.51
2019-05-11T19:25:09.239Z,56498.68
2019-05-11T19:27:37.939Z,56557.56
2019-05-11T19:30:08.516Z,56572.79
2019-05-11T19:32:38.265Z,56580.91
2019-05-11T19:35:08.864Z,56727.11
2019-05-11T19:37:38.694Z,56775.84
2019-05-11T19:40:09.074Z,56822.54
2019-05-11T19:42:54.195Z,56876.35
2019-05-11T19:45:23.283Z,56870.26
2019-05-11T19:47:51.723Z,56967.72
2019-05-11T19:50:20.589Z,56975.85
2019-05-11T19:52:48.972Z,57005.29
2019-05-11T19:55:18.165Z,57024.58
2019-05-11T19:57:48.298Z,57029.66
2019-05-11T20:00:18.454Z,57054.03
2019-05-11T20:02:47.014Z,57060.12
2019-05-11T20:05:15.418Z,57087.53
2019-05-11T20:07:43.823Z,57080.42
2019-05-11T20:10:12.364Z,57088.55
2019-05-11T20:12:41.897Z,57089.56
2019-05-11T20:15:10.678Z,57072.30
2019-05-11T20:17:39.321Z,57105.81
2019-05-11T20:20:09.048Z,57089.56
2019-05-11T20:22:39.039Z,57075.35
2019-05-11T20:25:09.234Z,57122.05
2019-05-11T20:27:38.804Z,57148.45
2019-05-11T20:30:08.577Z,57166.73
2019-05-11T20:32:38.867Z,57166.73
2019-05-11T20:35:08.514Z,57173.84
2019-05-11T20:37:38.415Z,57169.77
2019-05-11T20:40:09.100Z,57134.24
2019-05-11T20:42:38.049Z,57198.20
2019-05-11T20:45:07.738Z,57230.70
2019-05-11T20:47:38.150Z,57225.62
2019-05-11T20:50:07.986Z,57185.00
2019-05-11T20:52:38.786Z,57211.41
2019-05-11T20:55:08.981Z,57233.74
2019-05-11T20:57:39.160Z,57254.05
2019-05-11T21:00:09.603Z,57264.20
2019-05-11T21:02:38.347Z,57268.27
2019-05-11T21:05:10.121Z,57272.32
2019-05-11T21:07:39.131Z,57282.48
2019-05-11T21:10:09.036Z,57281.46
2019-05-11T21:12:38.616Z,57300.76
2019-05-11T21:15:09.257Z,57317.00
2019-05-11T21:17:37.724Z,57357.62
2019-05-11T21:20:08.195Z,57323.10
2019-05-11T21:22:40.033Z,57346.45
2019-05-11T21:25:09.285Z,57381.99
2019-05-11T21:27:38.648Z,57437.84
2019-05-11T21:30:09.830Z,57437.84
2019-05-11T21:32:40.169Z,57383.00
2019-05-11T21:35:09.458Z,57441.90
2019-05-11T21:37:39.040Z,57469.32
2019-05-11T21:40:08.945Z,57436.82
2019-05-11T21:42:39.026Z,57445.96
2019-05-11T21:45:09.488Z,57473.38
2019-05-11T21:47:38.978Z,57473.38
2019-05-11T21:50:09.343Z,57461.19
2019-05-11T21:52:38.567Z,57461.19
2019-05-11T21:55:09.381Z,57456.11
2019-05-11T21:57:38.137Z,57456.11
2019-05-11T22:00:10.682Z,57488.61
2019-05-11T22:02:39.239Z,57521.10
2019-05-11T22:05:09.063Z,57509.93
2019-05-11T22:07:41.361Z,57507.90
2019-05-11T22:10:09.351Z,57520.09
2019-05-11T22:12:39.132Z,57494.70
2019-05-11T22:15:09.873Z,57501.81
2019-05-11T22:17:39.340Z,57501.81
2019-05-11T22:20:09.254Z,57511.96
2019-05-11T22:22:38.916Z,57443.93
2019-05-11T22:25:08.706Z,57443.93
2019-05-11T22:27:38.948Z,57491.66
2019-05-11T22:30:08.601Z,57493.69
2019-05-11T22:32:38.470Z,57503.84
2019-05-11T22:35:08.537Z,57495.72
2019-05-11T22:37:38.557Z,57550.55
2019-05-11T22:40:08.571Z,57550.55
2019-05-11T22:42:37.346Z,57578.98
2019-05-11T22:45:08.524Z,57546.49
2019-05-11T22:47:39.392Z,57528.21
2019-05-11T22:50:08.893Z,57528.21
2019-05-11T22:52:40.160Z,57542.43
2019-05-11T22:55:11.869Z,57533.29
2019-05-11T22:57:39.282Z,57533.29
2019-05-11T23:00:09.511Z,57510.95
2019-05-11T23:02:38.465Z,57551.57
2019-05-11T23:05:08.893Z,57509.93
2019-05-11T23:07:41.207Z,57518.06
2019-05-11T23:10:09.768Z,57525.16
2019-05-11T23:12:38.884Z,57525.16
2019-05-11T23:15:14.514Z,57541.41
2019-05-11T23:17:43.190Z,57540.39
2019-05-11T23:20:12.206Z,57530.24
2019-05-11T23:22:57.390Z,57530.24
2019-05-11T23:25:19.973Z,57571.87
2019-05-11T23:27:48.991Z,57548.52
2019-05-11T23:30:19.678Z,57546.49
2019-05-11T23:32:48.998Z,57561.72
2019-05-11T23:35:18.711Z,57534.30
2019-05-11T23:37:49.369Z,57534.30
2019-05-11T23:40:18.737Z,57545.47
2019-05-11T23:42:49.041Z,57559.69
2019-05-11T23:45:18.882Z,57561.72
2019-05-11T23:47:48.805Z,57562.74
2019-05-11T23:50:18.913Z,57512.98
2019-05-11T23:52:50.118Z,57512.98
2019-05-11T23:55:19.259Z,57576.95
2019-05-11T23:57:48.757Z,57560.70
